createdAt,value
2018-06-15T00:02:03.392Z,5.63
2018-06-15T00:04:30.968Z,4.90
2018-06-15T00:06:58.673Z,5.67
2018-06-15T00:09:26.270Z,5.60
2018-06-15T00:11:53.878Z,5.63
2018-06-15T00:14:21.482Z,4.60
2018-06-15T00:16:49.053Z,4.67
2018-06-15T00:19:16.642Z,6.47
2018-06-15T00:21:44.194Z,5.20
2018-06-15T00:24:11.842Z,4.90
2018-06-15T00:26:39.819Z,4.77
2018-06-15T00:29:07.352Z,4.97
2018-06-15T00:31:34.897Z,4.90
2018-06-15T00:34:02.525Z,5.73
2018-06-15T00:36:30.109Z,5.73
2018-06-15T00:38:57.664Z,5.53
2018-06-15T00:41:25.485Z,6.37
2018-06-15T00:43:53.134Z,5.50
2018-06-15T00:46:20.719Z,5.30
2018-06-15T00:48:48.289Z,4.90
2018-06-15T00:51:15.857Z,5.77
2018-06-15T00:53:43.386Z,5.83
2018-06-15T00:56:11.828Z,5.90
2018-06-15T00:58:39.380Z,6.10
2018-06-15T01:01:06.944Z,6.60
2018-06-15T01:03:34.565Z,6.13
2018-06-15T01:06:02.130Z,5.47
2018-06-15T01:08:29.787Z,5.30
2018-06-15T01:10:57.497Z,5.80
2018-06-15T01:13:25.095Z,6.03
2018-06-15T01:15:52.667Z,4.80
2018-06-15T01:18:20.292Z,5.40
2018-06-15T01:20:47.857Z,6.00
2018-06-15T01:23:15.445Z,5.33
2018-06-15T01:25:42.981Z,5.20
2018-06-15T01:28:10.575Z,5.60
2018-06-15T01:30:41.270Z,6.27
2018-06-15T01:33:08.908Z,5.80
2018-06-15T01:35:36.426Z,6.20
2018-06-15T01:38:04.329Z,6.53
2018-06-15T01:40:31.950Z,6.20
2018-06-15T01:42:59.571Z,7.13
2018-06-15T01:45:27.111Z,6.00
2018-06-15T01:47:54.686Z,5.83
2018-06-15T01:50:22.352Z,7.07
2018-06-15T01:52:50.124Z,5.90
2018-06-15T01:55:17.684Z,6.20
2018-06-15T01:57:45.636Z,7.30
2018-06-15T02:00:13.214Z,6.90
2018-06-15T02:02:41.150Z,8.23
2018-06-15T02:05:08.670Z,7.50
2018-06-15T02:07:36.206Z,6.50
2018-06-15T02:10:04.041Z,6.83
2018-06-15T02:12:31.576Z,7.13
2018-06-15T02:14:59.181Z,6.70
2018-06-15T02:17:26.750Z,7.13
2018-06-15T02:19:54.497Z,6.57
2018-06-15T02:22:22.046Z,6.80
2018-06-15T02:24:50.222Z,6.67
2018-06-15T02:27:17.783Z,7.10
2018-06-15T02:29:45.355Z,6.73
2018-06-15T02:32:12.954Z,6.10
2018-06-15T02:34:40.481Z,6.90
2018-06-15T02:37:08.139Z,6.90
2018-06-15T02:39:35.720Z,6.30
2018-06-15T02:42:03.413Z,6.53
2018-06-15T02:44:30.992Z,6.37
2018-06-15T02:46:58.597Z,7.00
2018-06-15T02:49:26.093Z,6.10
2018-06-15T02:51:53.681Z,7.27
2018-06-15T02:54:21.297Z,6.80
2018-06-15T02:56:48.981Z,7.00
2018-06-15T02:59:16.499Z,7.20
2018-06-15T03:01:44.250Z,6.50
2018-06-15T03:04:11.790Z,8.30
2018-06-15T03:06:39.336Z,6.77
2018-06-15T03:09:07.283Z,6.13
2018-06-15T03:11:34.870Z,6.80
2018-06-15T03:14:02.407Z,5.90
2018-06-15T03:16:30.045Z,6.70
2018-06-15T03:18:57.620Z,7.40
2018-06-15T03:21:25.238Z,7.80
2018-06-15T03:23:52.856Z,7.00
2018-06-15T03:26:20.405Z,7.93
2018-06-15T03:28:47.968Z,7.77
2018-06-15T03:31:15.577Z,7.23
2018-06-15T03:33:43.153Z,7.00
2018-06-15T03:36:10.696Z,6.30
2018-06-15T03:38:38.304Z,7.57
2018-06-15T03:41:05.987Z,7.53
2018-06-15T03:43:33.501Z,6.47
2018-06-15T03:46:01.179Z,7.40
2018-06-15T03:48:28.751Z,6.70
2018-06-15T03:50:56.307Z,6.10
2018-06-15T03:53:23.948Z,6.47
2018-06-15T03:55:51.493Z,5.93
2018-06-15T03:58:19.121Z,6.60
2018-06-15T04:00:46.767Z,6.17
2018-06-15T04:03:14.346Z,5.70
2018-06-15T04:05:42.031Z,7.00
2018-06-15T04:08:09.633Z,7.33
2018-06-15T04:10:37.253Z,5.53
2018-06-15T04:13:04.877Z,5.77
2018-06-15T04:15:32.665Z,5.97
2018-06-15T04:18:04.891Z,5.87
2018-06-15T04:20:32.968Z,6.47
2018-06-15T04:23:01.074Z,6.40
2018-06-15T04:25:28.978Z,6.20
2018-06-15T04:27:56.639Z,5.77
2018-06-15T04:30:24.162Z,5.67
2018-06-15T04:32:51.810Z,6.57
2018-06-15T04:35:19.570Z,7.30
2018-06-15T04:37:47.506Z,6.27
2018-06-15T04:40:15.084Z,6.33
2018-06-15T04:42:43.096Z,6.10
2018-06-15T04:45:10.632Z,6.17
2018-06-15T04:47:38.162Z,6.70
2018-06-15T04:50:06.480Z,7.20
2018-06-15T04:52:34.062Z,7.00
2018-06-15T04:55:01.626Z,6.83
2018-06-15T04:57:30.398Z,6.20
2018-06-15T04:59:58.280Z,6.13
2018-06-15T05:02:26.083Z,6.50
2018-06-15T05:04:53.681Z,6.30
2018-06-15T05:07:21.289Z,7.20
2018-06-15T05:09:48.829Z,7.23
2018-06-15T05:12:16.850Z,6.90
2018-06-15T05:14:44.561Z,6.40
2018-06-15T05:17:12.304Z,6.83
2018-06-15T05:19:39.885Z,7.20
2018-06-15T05:22:07.757Z,6.93
2018-06-15T05:24:35.309Z,6.50
2018-06-15T05:27:03.162Z,7.90
2018-06-15T05:29:30.713Z,7.23
2018-06-15T05:31:58.333Z,6.60
2018-06-15T05:34:25.931Z,7.53
2018-06-15T05:36:53.500Z,6.90
2018-06-15T05:39:21.137Z,7.23
2018-06-15T05:41:48.785Z,6.70
2018-06-15T05:44:16.335Z,8.40
2018-06-15T05:46:43.857Z,7.10
2018-06-15T05:49:11.481Z,6.73
2018-06-15T05:51:39.051Z,6.90
2018-06-15T05:54:06.657Z,7.50
2018-06-15T05:56:34.339Z,8.10
2018-06-15T05:59:01.939Z,7.10
2018-06-15T06:01:29.641Z,8.90
2018-06-15T06:03:57.248Z,7.17
2018-06-15T06:06:24.873Z,6.70
2018-06-15T06:08:52.371Z,7.40
2018-06-15T06:11:20.031Z,6.87
2018-06-15T06:13:47.589Z,6.50
2018-06-15T06:16:15.145Z,6.77
2018-06-15T06:18:42.738Z,7.30
2018-06-15T06:21:10.315Z,6.60
2018-06-15T06:23:37.885Z,6.90
2018-06-15T06:26:06.444Z,7.60
2018-06-15T06:28:33.995Z,6.60
2018-06-15T06:31:01.706Z,6.60
2018-06-15T06:33:29.278Z,7.87
2018-06-15T06:35:56.841Z,6.87
2018-06-15T06:38:24.401Z,7.33
2018-06-15T06:40:52.001Z,7.13
2018-06-15T06:43:19.592Z,6.73
2018-06-15T06:45:47.488Z,6.73
2018-06-15T06:48:15.384Z,7.37
2018-06-15T06:50:42.900Z,6.93
2018-06-15T06:53:10.438Z,6.47
2018-06-15T06:55:38.051Z,7.10
2018-06-15T06:58:05.586Z,6.13
2018-06-15T07:00:33.162Z,6.70
2018-06-15T07:03:00.839Z,6.73
2018-06-15T07:05:28.778Z,5.90
2018-06-15T07:07:56.364Z,6.67
2018-06-15T07:10:23.988Z,6.83
2018-06-15T07:12:51.566Z,6.43
2018-06-15T07:15:19.096Z,6.20
2018-06-15T07:17:46.674Z,6.33
2018-06-15T07:20:14.260Z,6.37
2018-06-15T07:22:41.837Z,6.50
2018-06-15T07:25:09.400Z,6.10
2018-06-15T07:27:36.961Z,6.17
2018-06-15T07:30:04.555Z,6.03
2018-06-15T07:32:32.146Z,5.67
2018-06-15T07:35:00.379Z,4.30
2018-06-15T07:37:27.979Z,4.70
2018-06-15T07:39:55.890Z,5.10
2018-06-15T07:42:24.498Z,4.63
2018-06-15T07:44:53.727Z,5.20
2018-06-15T07:47:21.569Z,4.20
2018-06-15T07:49:49.221Z,5.20
2018-06-15T07:52:16.817Z,24.00
2018-06-15T07:54:44.465Z,5.03
2018-06-15T07:59:46.448Z,5.40
2018-06-15T08:02:13.972Z,5.47
2018-06-15T08:04:41.538Z,5.07
2018-06-15T08:07:10.056Z,4.80
2018-06-15T08:09:37.735Z,4.10
2018-06-15T08:12:05.312Z,4.67
2018-06-15T08:14:32.902Z,3.90
2018-06-15T08:17:00.440Z,3.93
2018-06-15T08:19:27.989Z,3.50
2018-06-15T08:21:55.610Z,3.27
2018-06-15T08:24:23.154Z,4.00
2018-06-15T08:26:50.765Z,4.27
2018-06-15T08:29:18.382Z,3.70
2018-06-15T08:31:45.918Z,3.50
2018-06-15T08:34:13.510Z,4.00
2018-06-15T08:36:41.080Z,3.70
2018-06-15T08:39:10.046Z,3.30
2018-06-15T08:41:37.700Z,3.60
2018-06-15T08:44:05.312Z,4.30
2018-06-15T08:46:32.858Z,3.90
2018-06-15T08:49:00.484Z,3.67
2018-06-15T08:51:28.082Z,3.13
2018-06-15T08:53:55.592Z,4.00
2018-06-15T08:56:23.183Z,3.70
2018-06-15T08:58:50.878Z,3.70
2018-06-15T09:01:18.478Z,3.47
2018-06-15T09:03:46.082Z,3.63
2018-06-15T09:06:13.675Z,4.50
2018-06-15T09:08:41.238Z,3.50
2018-06-15T09:11:08.776Z,3.70
2018-06-15T09:13:36.360Z,3.73
2018-06-15T09:16:03.950Z,3.23
2018-06-15T09:18:31.756Z,3.17
2018-06-15T09:21:02.705Z,2.83
2018-06-15T09:23:31.591Z,3.20
2018-06-15T09:25:59.132Z,3.10
2018-06-15T09:28:26.757Z,3.30
2018-06-15T09:30:54.336Z,3.30
2018-06-15T09:33:21.929Z,3.60
2018-06-15T09:35:50.315Z,3.27
2018-06-15T09:38:17.918Z,3.40
2018-06-15T09:40:45.493Z,3.47
2018-06-15T09:43:13.133Z,3.87
2018-06-15T09:45:40.718Z,3.40
2018-06-15T09:48:08.265Z,3.50
2018-06-15T09:50:35.829Z,2.73
2018-06-15T09:53:03.403Z,3.57
2018-06-15T09:55:30.948Z,3.40
2018-06-15T09:57:58.562Z,3.40
2018-06-15T10:00:31.633Z,3.30
2018-06-15T10:02:59.218Z,3.33
2018-06-15T10:05:26.812Z,4.33
2018-06-15T10:07:54.522Z,3.17
2018-06-15T10:10:22.142Z,3.07
2018-06-15T10:12:49.803Z,3.17
2018-06-15T10:15:17.392Z,3.53
2018-06-15T10:17:44.962Z,3.40
2018-06-15T10:20:12.487Z,4.20
2018-06-15T10:22:40.018Z,3.57
2018-06-15T10:25:07.757Z,3.30
2018-06-15T10:27:35.467Z,2.90
2018-06-15T10:30:03.121Z,3.07
2018-06-15T10:32:30.744Z,3.60
2018-06-15T10:34:58.389Z,2.73
2018-06-15T10:37:26.026Z,3.20
2018-06-15T10:39:53.600Z,3.97
2018-06-15T10:42:21.141Z,3.40
2018-06-15T10:44:48.741Z,3.87
2018-06-15T10:47:16.363Z,3.60
2018-06-15T10:49:43.939Z,3.83
2018-06-15T10:52:12.227Z,4.57
2018-06-15T10:54:39.790Z,3.73
2018-06-15T10:57:07.533Z,3.97
2018-06-15T10:59:35.073Z,3.97
2018-06-15T11:02:02.985Z,4.37
2018-06-15T11:04:30.663Z,4.03
2018-06-15T11:06:58.203Z,4.00
2018-06-15T11:09:26.101Z,3.83
2018-06-15T11:11:53.661Z,3.70
2018-06-15T11:14:21.223Z,5.37
2018-06-15T11:16:48.864Z,4.37
2018-06-15T11:19:16.431Z,4.70
2018-06-15T11:21:44.025Z,4.50
2018-06-15T11:24:11.618Z,3.93
2018-06-15T11:26:39.261Z,4.40
2018-06-15T11:29:06.821Z,4.20
2018-06-15T11:31:34.353Z,4.67
2018-06-15T11:34:01.911Z,4.40
2018-06-15T11:36:29.531Z,4.27
2018-06-15T11:38:57.095Z,4.17
2018-06-15T11:41:24.792Z,4.37
2018-06-15T11:43:52.433Z,4.50
2018-06-15T11:46:20.025Z,4.20
2018-06-15T11:48:47.593Z,4.20
2018-06-15T11:51:15.189Z,5.03
2018-06-15T11:53:42.754Z,4.80
2018-06-15T11:56:10.327Z,4.90
2018-06-15T11:58:37.897Z,5.87
2018-06-15T12:01:05.491Z,4.63
2018-06-15T12:03:33.045Z,5.00
2018-06-15T12:06:00.759Z,4.77
2018-06-15T12:08:28.819Z,4.60
2018-06-15T12:10:56.433Z,4.13
2018-06-15T12:13:24.113Z,4.60
2018-06-15T12:15:51.757Z,4.00
2018-06-15T12:18:19.303Z,4.43
2018-06-15T12:20:46.838Z,4.73
2018-06-15T12:23:14.333Z,4.60
2018-06-15T12:25:41.896Z,4.10
2018-06-15T12:28:09.433Z,4.53
2018-06-15T12:30:37.353Z,4.70
2018-06-15T12:33:05.030Z,4.43
2018-06-15T12:35:32.558Z,3.70
2018-06-15T12:38:00.639Z,4.10
2018-06-15T12:40:28.277Z,4.97
2018-06-15T12:42:55.821Z,4.30
2018-06-15T12:45:23.630Z,3.97
2018-06-15T12:47:51.196Z,4.03
2018-06-15T12:50:18.822Z,3.77
2018-06-15T12:52:46.395Z,3.43
2018-06-15T12:55:14.308Z,3.87
2018-06-15T12:57:41.879Z,3.87
2018-06-15T13:00:09.564Z,3.37
2018-06-15T13:02:37.140Z,3.73
2018-06-15T13:05:04.901Z,4.40
2018-06-15T13:07:32.490Z,3.90
2018-06-15T13:10:00.682Z,3.10
2018-06-15T13:12:28.734Z,3.87
2018-06-15T13:14:56.398Z,3.97
2018-06-15T13:17:24.030Z,4.53
2018-06-15T13:19:51.605Z,4.60
2018-06-15T13:22:19.186Z,3.80
2018-06-15T13:24:46.730Z,3.07
2018-06-15T13:27:14.856Z,3.30
2018-06-15T13:29:42.446Z,3.90
2018-06-15T13:32:10.030Z,5.50
2018-06-15T13:34:37.613Z,4.47
2018-06-15T13:37:06.614Z,4.80
2018-06-15T13:39:34.188Z,3.70
2018-06-15T13:42:01.861Z,3.50
2018-06-15T13:44:29.688Z,3.93
2018-06-15T13:46:57.360Z,3.60
2018-06-15T13:49:56.197Z,3.83
2018-06-15T13:52:23.801Z,4.10
2018-06-15T13:54:51.641Z,4.60
2018-06-15T13:57:19.267Z,4.67
2018-06-15T13:59:46.819Z,3.53
2018-06-15T14:02:14.353Z,3.70
2018-06-15T14:04:42.081Z,3.77
2018-06-15T14:07:09.707Z,4.90
2018-06-15T14:09:37.325Z,4.43
2018-06-15T14:12:05.001Z,3.40
2018-06-15T14:14:32.991Z,4.83
2018-06-15T14:17:00.593Z,3.40
2018-06-15T14:19:28.238Z,3.60
2018-06-15T14:21:55.785Z,3.90
2018-06-15T14:24:23.344Z,3.70
2018-06-15T14:26:50.981Z,5.93
2018-06-15T14:29:18.625Z,4.67
2018-06-15T14:31:46.193Z,4.00
2018-06-15T14:34:13.929Z,4.03
2018-06-15T14:36:41.531Z,4.10
2018-06-15T14:39:10.214Z,3.63
2018-06-15T14:41:37.865Z,4.37
2018-06-15T14:44:05.559Z,4.00
2018-06-15T14:46:33.214Z,3.20
2018-06-15T14:49:00.880Z,4.07
2018-06-15T14:51:28.715Z,4.90
2018-06-15T14:53:56.301Z,4.63
2018-06-15T14:56:23.896Z,4.50
2018-06-15T14:58:51.830Z,4.70
2018-06-15T15:01:19.416Z,5.07
2018-06-15T15:03:47.126Z,5.03
2018-06-15T15:06:14.645Z,4.70
2018-06-15T15:08:42.266Z,5.43
2018-06-15T15:11:09.842Z,5.23
2018-06-15T15:13:37.396Z,5.80
2018-06-15T15:16:04.991Z,5.03
2018-06-15T15:18:32.562Z,6.17
2018-06-15T15:21:00.197Z,5.30
2018-06-15T15:23:27.779Z,5.73
2018-06-15T15:25:55.432Z,5.23
2018-06-15T15:28:23.050Z,5.53
2018-06-15T15:30:50.706Z,5.50
2018-06-15T15:33:18.292Z,5.07
2018-06-15T15:35:45.902Z,5.50
2018-06-15T15:38:13.527Z,5.50
2018-06-15T15:40:41.122Z,5.63
2018-06-15T15:43:09.026Z,5.40
2018-06-15T15:45:36.690Z,5.30
2018-06-15T15:48:04.432Z,5.13
2018-06-15T15:50:32.108Z,5.00
2018-06-15T15:52:59.786Z,4.73
2018-06-15T15:55:27.406Z,4.77
2018-06-15T15:57:54.993Z,4.17
2018-06-15T16:00:22.724Z,4.40
2018-06-15T16:02:50.250Z,4.80
2018-06-15T16:05:17.828Z,4.83
2018-06-15T16:07:45.404Z,3.97
2018-06-15T16:10:13.024Z,5.63
2018-06-15T16:12:40.716Z,5.73
2018-06-15T16:15:08.245Z,4.67
2018-06-15T16:17:35.939Z,4.87
2018-06-15T16:20:03.669Z,5.43
2018-06-15T16:22:31.375Z,5.03
2018-06-15T16:24:59.110Z,5.23
2018-06-15T16:27:26.901Z,4.73
2018-06-15T16:29:54.471Z,5.17
2018-06-15T16:32:22.093Z,4.60
2018-06-15T16:34:49.674Z,4.83
2018-06-15T16:37:17.465Z,5.20
2018-06-15T16:39:45.012Z,5.30
2018-06-15T16:42:12.522Z,4.60
2018-06-15T16:44:40.226Z,5.50
2018-06-15T16:47:07.839Z,5.50
2018-06-15T16:49:35.410Z,4.40
2018-06-15T16:52:03.140Z,4.77
2018-06-15T16:54:30.812Z,5.30
2018-06-15T16:56:58.552Z,4.70
2018-06-15T16:59:26.096Z,4.23
2018-06-15T17:01:53.752Z,4.20
2018-06-15T17:04:21.350Z,4.13
2018-06-15T17:06:48.893Z,4.63
2018-06-15T17:09:17.775Z,5.57
2018-06-15T17:11:45.471Z,4.70
2018-06-15T17:14:13.056Z,4.57
2018-06-15T17:16:40.721Z,5.37
2018-06-15T17:19:08.297Z,4.60
2018-06-15T17:21:35.869Z,4.53
2018-06-15T17:24:03.509Z,4.37
2018-06-15T17:26:31.113Z,4.27
2018-06-15T17:28:58.789Z,4.63
2018-06-15T17:31:26.310Z,3.70
2018-06-15T17:33:53.980Z,4.13
2018-06-15T17:36:21.480Z,4.53
2018-06-15T17:38:49.131Z,4.77
2018-06-15T17:41:16.761Z,4.93
2018-06-15T17:43:44.379Z,4.53
2018-06-15T17:46:12.065Z,4.30
2018-06-15T17:48:39.641Z,4.27
2018-06-15T17:51:07.252Z,4.30
2018-06-15T17:53:34.949Z,4.53
2018-06-15T17:56:02.609Z,5.00
2018-06-15T17:58:30.279Z,5.33
2018-06-15T18:00:58.077Z,4.20
2018-06-15T18:03:25.691Z,4.40
2018-06-15T18:05:53.281Z,4.60
2018-06-15T18:08:20.919Z,4.03
2018-06-15T18:10:48.588Z,4.30
2018-06-15T18:13:16.161Z,4.50
2018-06-15T18:15:43.721Z,4.57
2018-06-15T18:18:11.268Z,4.60
2018-06-15T18:20:38.821Z,4.87
2018-06-15T18:23:06.417Z,4.53
2018-06-15T18:25:34.000Z,5.10
2018-06-15T18:28:01.563Z,4.93
2018-06-15T18:30:29.193Z,4.47
2018-06-15T18:32:56.853Z,4.20
2018-06-15T18:35:24.398Z,4.70
2018-06-15T18:37:52.048Z,4.50
2018-06-15T18:40:19.596Z,3.83
2018-06-15T18:42:47.185Z,4.50
2018-06-15T18:45:14.810Z,4.80
2018-06-15T18:47:42.402Z,4.53
2018-06-15T18:50:09.980Z,3.83
2018-06-15T18:52:38.403Z,4.23
2018-06-15T18:55:06.049Z,3.80
2018-06-15T18:57:33.670Z,5.00
2018-06-15T19:00:01.564Z,4.40
2018-06-15T19:02:29.232Z,4.10
2018-06-15T19:04:56.916Z,3.70
2018-06-15T19:07:24.554Z,4.40
2018-06-15T19:09:52.141Z,4.30
2018-06-15T19:12:19.750Z,4.70
2018-06-15T19:14:47.370Z,4.60
2018-06-15T19:17:15.024Z,4.17
2018-06-15T19:19:42.550Z,5.27
2018-06-15T19:22:10.248Z,5.27
2018-06-15T19:24:37.820Z,5.57
2018-06-15T19:27:05.542Z,4.63
2018-06-15T19:29:33.188Z,4.90
2018-06-15T19:32:00.726Z,3.93
2018-06-15T19:34:28.323Z,4.13
2018-06-15T19:36:56.027Z,3.60
2018-06-15T19:39:23.650Z,4.43
2018-06-15T19:41:51.289Z,4.30
2018-06-15T19:44:18.890Z,3.63
2018-06-15T19:46:46.461Z,4.70
2018-06-15T19:49:14.028Z,3.90
2018-06-15T19:51:41.650Z,4.63
2018-06-15T19:54:09.207Z,5.60
2018-06-15T19:56:36.852Z,5.10
2018-06-15T19:59:04.779Z,4.70
2018-06-15T20:01:32.542Z,4.50
2018-06-15T20:04:00.104Z,4.83
2018-06-15T20:06:28.016Z,4.70
2018-06-15T20:08:55.610Z,5.10
2018-06-15T20:11:23.178Z,5.50
2018-06-15T20:13:50.799Z,4.93
2018-06-15T20:16:18.404Z,5.00
2018-06-15T20:18:45.968Z,5.20
2018-06-15T20:21:13.552Z,4.97
2018-06-15T20:23:41.287Z,5.70
2018-06-15T20:26:08.958Z,5.40
2018-06-15T20:28:36.660Z,4.90
2018-06-15T20:31:04.205Z,4.77
2018-06-15T20:33:31.750Z,4.77
2018-06-15T20:35:59.376Z,4.47
2018-06-15T20:38:27.779Z,5.00
2018-06-15T20:40:55.383Z,4.50
2018-06-15T20:43:23.049Z,5.63
2018-06-15T20:45:50.622Z,6.53
2018-06-15T20:48:18.212Z,5.07
2018-06-15T20:50:45.810Z,4.53
2018-06-15T20:53:13.385Z,4.23
2018-06-15T20:55:40.955Z,4.73
2018-06-15T20:58:08.576Z,5.00
2018-06-15T21:00:36.200Z,5.10
2018-06-15T21:03:03.725Z,4.53
2018-06-15T21:05:31.306Z,4.97
2018-06-15T21:07:59.120Z,4.63
2018-06-15T21:10:26.702Z,5.33
2018-06-15T21:12:54.297Z,5.47
2018-06-15T21:15:21.798Z,6.10
2018-06-15T21:17:49.447Z,6.17
2018-06-15T21:20:17.051Z,5.20
2018-06-15T21:22:44.873Z,6.20
2018-06-15T21:25:12.520Z,5.90
2018-06-15T21:27:40.220Z,5.33
2018-06-15T21:30:07.797Z,5.93
2018-06-15T21:32:35.333Z,5.23
2018-06-15T21:35:03.165Z,5.47
2018-06-15T21:37:30.706Z,5.67
2018-06-15T21:39:58.200Z,5.40
2018-06-15T21:42:25.808Z,5.50
2018-06-15T21:44:53.488Z,5.97
2018-06-15T21:47:21.060Z,5.80
2018-06-15T21:49:48.669Z,6.50
2018-06-15T21:52:16.273Z,5.67
2018-06-15T21:54:43.807Z,6.07
2018-06-15T21:57:11.389Z,5.90
2018-06-15T21:59:38.994Z,6.43
2018-06-15T22:02:06.633Z,6.30
2018-06-15T22:04:34.325Z,6.57
2018-06-15T22:07:01.931Z,6.20
2018-06-15T22:09:29.493Z,6.80
2018-06-15T22:11:57.159Z,6.10
2018-06-15T22:14:24.860Z,7.10
2018-06-15T22:16:52.907Z,6.80
2018-06-15T22:19:21.909Z,7.40
2018-06-15T22:21:50.703Z,8.30
2018-06-15T22:24:18.293Z,7.67
2018-06-15T22:26:45.938Z,6.97
2018-06-15T22:29:13.473Z,7.00
2018-06-15T22:31:41.046Z,7.53
2018-06-15T22:34:08.741Z,7.10
2018-06-15T22:36:36.357Z,7.70
2018-06-15T22:39:08.077Z,8.97
2018-06-15T22:41:35.654Z,6.90
2018-06-15T22:44:03.222Z,7.07
2018-06-15T22:46:30.871Z,7.60
2018-06-15T22:48:58.426Z,8.27
2018-06-15T22:51:26.113Z,7.30
2018-06-15T22:53:53.704Z,8.00
2018-06-15T22:56:21.284Z,7.50
2018-06-15T22:58:48.871Z,8.87
2018-06-15T23:01:16.506Z,8.03
2018-06-15T23:03:44.054Z,7.60
2018-06-15T23:06:11.596Z,8.33
2018-06-15T23:08:39.230Z,8.23
2018-06-15T23:11:06.910Z,7.97
2018-06-15T23:13:34.564Z,8.50
2018-06-15T23:16:02.174Z,7.70
2018-06-15T23:18:29.740Z,8.90
2018-06-15T23:20:57.282Z,8.90
2018-06-15T23:23:25.422Z,9.30
2018-06-15T23:25:52.974Z,8.70
2018-06-15T23:28:20.547Z,9.63
2018-06-15T23:30:48.948Z,10.27
2018-06-15T23:33:16.504Z,8.83
2018-06-15T23:35:44.025Z,9.43
2018-06-15T23:38:11.586Z,10.83
2018-06-15T23:40:39.133Z,10.30
2018-06-15T23:43:07.016Z,9.63
2018-06-15T23:45:34.617Z,9.43
2018-06-15T23:48:02.205Z,10.07
2018-06-15T23:50:29.790Z,9.13
2018-06-15T23:52:57.408Z,9.50
2018-06-15T23:55:24.995Z,9.17
2018-06-15T23:57:52.676Z,9.87
